sensor_id;sensor_type;location;lat;lon;timestamp;pressure;altitude;pressure_sealevel;temperature;humidity
64019;BME280;66942;52.138;5.216;2023-05-24T00:00:47;102546.0;;;14.2;53.09
64019;BME280;66942;52.138;5.216;2023-05-24T00:02:24;102542.0;;;14.26;52.22
64019;BME280;66942;52.138;5.216;2023-05-24T00:04:00;102542.0;;;14.33;52.11
64019;BME280;66942;52.138;5.216;2023-05-24T00:07:12;102542.0;;;14.38;52.07
64019;BME280;66942;52.138;5.216;2023-05-24T00:08:48;102541.00000000001;;;14.39;52.04
64019;BME280;66942;52.138;5.216;2023-05-24T00:10:25;102538.00000000001;;;14.17;52.33
64019;BME280;66942;52.138;5.216;2023-05-24T00:13:38;102534.99999999999;;;14.14;52.29
64019;BME280;66942;52.138;5.216;2023-05-24T00:15:14;102542.0;;;14.01;53.47
64019;BME280;66942;52.138;5.216;2023-05-24T00:16:50;102533.0;;;14.09;52.5
64019;BME280;66942;52.138;5.216;2023-05-24T00:20:03;102528.0;;;14.08;52.0
64019;BME280;66942;52.138;5.216;2023-05-24T00:21:40;102532.0;;;13.99;52.51
64019;BME280;66942;52.138;5.216;2023-05-24T00:23:16;102531.0;;;13.82;53.17
64019;BME280;66942;52.138;5.216;2023-05-24T00:24:52;102527.0;;;13.94;52.52
64019;BME280;66942;52.138;5.216;2023-05-24T00:28:04;102533.0;;;13.87;52.72
64019;BME280;66942;52.138;5.216;2023-05-24T00:29:40;102531.0;;;14.04;52.27
64019;BME280;66942;52.138;5.216;2023-05-24T00:31:16;102533.0;;;13.89;52.86
64019;BME280;66942;52.138;5.216;2023-05-24T00:34:29;102533.99999999999;;;13.85;52.92
64019;BME280;66942;52.138;5.216;2023-05-24T00:36:05;102530.0;;;13.95;52.2
64019;BME280;66942;52.138;5.216;2023-05-24T00:37:41;102530.0;;;13.97;52.41
64019;BME280;66942;52.138;5.216;2023-05-24T00:40:53;102533.0;;;13.9;52.47
64019;BME280;66942;52.138;5.216;2023-05-24T00:42:29;102527.0;;;13.79;53.16
64019;BME280;66942;52.138;5.216;2023-05-24T00:44:06;102533.99999999999;;;13.88;52.83
64019;BME280;66942;52.138;5.216;2023-05-24T00:45:42;102530.0;;;13.8;52.91
64019;BME280;66942;52.138;5.216;2023-05-24T00:48:54;102524.0;;;13.78;53.21
64019;BME280;66942;52.138;5.216;2023-05-24T00:50:32;102522.0;;;13.85;53.07
64019;BME280;66942;52.138;5.216;2023-05-24T00:52:08;102524.0;;;13.82;53.14
64019;BME280;66942;52.138;5.216;2023-05-24T00:55:23;102522.0;;;13.8;52.78
64019;BME280;66942;52.138;5.216;2023-05-24T00:56:59;102523.0;;;13.7;53.14
64019;BME280;66942;52.138;5.216;2023-05-24T00:58:35;102522.0;;;13.9;52.7
64019;BME280;66942;52.138;5.216;2023-05-24T01:01:49;102520.0;;;13.82;52.73
64019;BME280;66942;52.138;5.216;2023-05-24T01:03:25;102520.0;;;13.71;53.32
64019;BME280;66942;52.138;5.216;2023-05-24T01:05:03;102521.0;;;13.86;52.89
64019;BME280;66942;52.138;5.216;2023-05-24T01:06:46;102519.0;;;13.72;53.31
64019;BME280;66942;52.138;5.216;2023-05-24T01:10:33;102521.0;;;13.7;53.21
64019;BME280;66942;52.138;5.216;2023-05-24T01:12:21;102524.0;;;13.77;53.16
64019;BME280;66942;52.138;5.216;2023-05-24T01:14:11;102520.0;;;13.7;53.55
64019;BME280;66942;52.138;5.216;2023-05-24T01:15:58;102523.0;;;13.79;53.03
64019;BME280;66942;52.138;5.216;2023-05-24T01:17:45;102521.0;;;13.87;53.07
64019;BME280;66942;52.138;5.216;2023-05-24T01:19:39;102521.0;;;13.73;53.0
64019;BME280;66942;52.138;5.216;2023-05-24T01:21:53;102518.0;;;13.78;52.77
64019;BME280;66942;52.138;5.216;2023-05-24T01:23:41;102517.0;;;13.75;53.35
64019;BME280;66942;52.138;5.216;2023-05-24T01:27:22;102514.00000000001;;;13.73;53.71
64019;BME280;66942;52.138;5.216;2023-05-24T01:28:59;102517.0;;;13.79;53.1
64019;BME280;66942;52.138;5.216;2023-05-24T01:30:38;102514.00000000001;;;13.83;53.28
64019;BME280;66942;52.138;5.216;2023-05-24T01:32:16;102518.0;;;13.77;53.36
64019;BME280;66942;52.138;5.216;2023-05-24T01:33:53;102520.0;;;13.77;53.91
64019;BME280;66942;52.138;5.216;2023-05-24T01:37:05;102522.0;;;13.8;53.2
64019;BME280;66942;52.138;5.216;2023-05-24T01:38:42;102524.0;;;13.84;53.25
64019;BME280;66942;52.138;5.216;2023-05-24T01:40:18;102524.0;;;13.78;53.57
64019;BME280;66942;52.138;5.216;2023-05-24T01:43:47;102527.0;;;13.91;52.88
64019;BME280;66942;52.138;5.216;2023-05-24T01:45:34;102524.0;;;13.8;53.08
64019;BME280;66942;52.138;5.216;2023-05-24T01:47:23;102526.0;;;13.92;52.54
64019;BME280;66942;52.138;5.216;2023-05-24T01:49:12;102522.0;;;13.72;52.97
64019;BME280;66942;52.138;5.216;2023-05-24T01:50:57;102517.0;;;13.78;52.95
64019;BME280;66942;52.138;5.216;2023-05-24T01:54:12;102520.0;;;13.71;52.8
64019;BME280;66942;52.138;5.216;2023-05-24T01:55:50;102521.0;;;13.62;53.21
64019;BME280;66942;52.138;5.216;2023-05-24T01:57:31;102519.0;;;13.54;53.62
64019;BME280;66942;52.138;5.216;2023-05-24T01:59:10;102516.00000000001;;;13.59;53.51
64019;BME280;66942;52.138;5.216;2023-05-24T02:02:24;102515.00000000001;;;13.66;53.43
64019;BME280;66942;52.138;5.216;2023-05-24T02:04:01;102511.99999999999;;;13.59;53.01
64019;BME280;66942;52.138;5.216;2023-05-24T02:05:37;102509.99999999999;;;13.6;53.36
64019;BME280;66942;52.138;5.216;2023-05-24T02:08:50;102508.0;;;13.63;53.71
64019;BME280;66942;52.138;5.216;2023-05-24T02:10:26;102504.0;;;13.65;52.91
64019;BME280;66942;52.138;5.216;2023-05-24T02:12:02;102505.0;;;13.48;53.16
64019;BME280;66942;52.138;5.216;2023-05-24T02:13:39;102504.0;;;13.58;52.81
64019;BME280;66942;52.138;5.216;2023-05-24T02:16:51;102505.0;;;13.46;52.99
64019;BME280;66942;52.138;5.216;2023-05-24T02:18:28;102505.0;;;13.33;53.48
64019;BME280;66942;52.138;5.216;2023-05-24T02:20:05;102508.99999999999;;;13.43;53.51
64019;BME280;66942;52.138;5.216;2023-05-24T02:23:17;102503.0;;;13.38;53.56
64019;BME280;66942;52.138;5.216;2023-05-24T02:24:53;102504.0;;;13.46;52.79
64019;BME280;66942;52.138;5.216;2023-05-24T02:26:29;102508.99999999999;;;13.31;53.99
64019;BME280;66942;52.138;5.216;2023-05-24T02:29:42;102514.00000000001;;;13.36;53.55
64019;BME280;66942;52.138;5.216;2023-05-24T02:31:18;102515.00000000001;;;13.17;53.68
64019;BME280;66942;52.138;5.216;2023-05-24T02:32:54;102517.0;;;13.16;53.56
64019;BME280;66942;52.138;5.216;2023-05-24T02:34:30;102519.0;;;13.14;53.58
64019;BME280;66942;52.138;5.216;2023-05-24T02:37:42;102517.0;;;13.01;54.45
64019;BME280;66942;52.138;5.216;2023-05-24T02:39:18;102518.0;;;13.15;53.7
64019;BME280;66942;52.138;5.216;2023-05-24T02:40:55;102514.00000000001;;;13.23;53.4
64019;BME280;66942;52.138;5.216;2023-05-24T02:44:07;102509.99999999999;;;13.3;53.07
64019;BME280;66942;52.138;5.216;2023-05-24T02:45:43;102518.0;;;13.25;53.37
64019;BME280;66942;52.138;5.216;2023-05-24T02:47:19;102515.00000000001;;;13.13;53.1
64019;BME280;66942;52.138;5.216;2023-05-24T02:50:31;102515.00000000001;;;13.15;53.33
64019;BME280;66942;52.138;5.216;2023-05-24T02:52:07;102513.00000000001;;;12.94;53.88
64019;BME280;66942;52.138;5.216;2023-05-24T02:53:44;102511.99999999999;;;13.09;53.22
64019;BME280;66942;52.138;5.216;2023-05-24T02:56:56;102513.00000000001;;;13.09;53.34
64019;BME280;66942;52.138;5.216;2023-05-24T02:58:32;102514.00000000001;;;12.9;53.71
64019;BME280;66942;52.138;5.216;2023-05-24T03:00:09;102516.00000000001;;;12.99;53.35
64019;BME280;66942;52.138;5.216;2023-05-24T03:01:46;102515.00000000001;;;13.03;53.23
64019;BME280;66942;52.138;5.216;2023-05-24T03:04:59;102520.0;;;12.99;53.24
64019;BME280;66942;52.138;5.216;2023-05-24T03:06:35;102517.0;;;13.01;53.14
64019;BME280;66942;52.138;5.216;2023-05-24T03:08:11;102517.0;;;12.71;53.8
64019;BME280;66942;52.138;5.216;2023-05-24T03:11:23;102519.0;;;12.71;53.74
64019;BME280;66942;52.138;5.216;2023-05-24T03:12:59;102519.0;;;12.75;53.68
64019;BME280;66942;52.138;5.216;2023-05-24T03:14:35;102517.0;;;12.77;53.52
64019;BME280;66942;52.138;5.216;2023-05-24T03:17:48;102520.0;;;12.72;53.51
64019;BME280;66942;52.138;5.216;2023-05-24T03:19:24;102523.0;;;12.72;53.95
64019;BME280;66942;52.138;5.216;2023-05-24T03:21:00;102517.0;;;12.65;54.03
64019;BME280;66942;52.138;5.216;2023-05-24T03:22:36;102511.99999999999;;;12.56;54.16
64019;BME280;66942;52.138;5.216;2023-05-24T03:25:48;102508.99999999999;;;12.58;54.46
64019;BME280;66942;52.138;5.216;2023-05-24T03:27:25;102507.0;;;12.61;54.31
64019;BME280;66942;52.138;5.216;2023-05-24T03:29:01;102515.00000000001;;;12.64;54.71
64019;BME280;66942;52.138;5.216;2023-05-24T03:32:13;102511.99999999999;;;12.76;53.79
64019;BME280;66942;52.138;5.216;2023-05-24T03:33:49;102508.99999999999;;;12.62;53.97
64019;BME280;66942;52.138;5.216;2023-05-24T03:35:25;102504.0;;;12.61;53.99
64019;BME280;66942;52.138;5.216;2023-05-24T03:38:38;102504.0;;;12.71;53.71
64019;BME280;66942;52.138;5.216;2023-05-24T03:40:14;102503.0;;;12.74;53.66
64019;BME280;66942;52.138;5.216;2023-05-24T03:41:50;102508.0;;;12.76;53.38
64019;BME280;66942;52.138;5.216;2023-05-24T03:45:03;102505.0;;;12.62;54.02
64019;BME280;66942;52.138;5.216;2023-05-24T03:46:39;102507.0;;;12.67;53.67
64019;BME280;66942;52.138;5.216;2023-05-24T03:48:16;102504.0;;;12.71;53.6
64019;BME280;66942;52.138;5.216;2023-05-24T03:49:52;102503.0;;;12.63;53.85
64019;BME280;66942;52.138;5.216;2023-05-24T03:53:04;102501.0;;;12.56;53.81
64019;BME280;66942;52.138;5.216;2023-05-24T03:54:40;102499.0;;;12.44;54.09
64019;BME280;66942;52.138;5.216;2023-05-24T03:56:16;102499.0;;;12.45;54.36
64019;BME280;66942;52.138;5.216;2023-05-24T03:59:28;102495.0;;;12.42;54.12
64019;BME280;66942;52.138;5.216;2023-05-24T04:01:05;102497.0;;;12.44;53.97
64019;BME280;66942;52.138;5.216;2023-05-24T04:02:41;102498.0;;;12.44;54.15
64019;BME280;66942;52.138;5.216;2023-05-24T04:05:53;102498.0;;;12.45;54.11
64019;BME280;66942;52.138;5.216;2023-05-24T04:07:29;102499.0;;;12.58;53.93
64019;BME280;66942;52.138;5.216;2023-05-24T04:09:05;102498.0;;;12.62;53.9
64019;BME280;66942;52.138;5.216;2023-05-24T04:12:18;102494.0;;;12.49;54.29
64019;BME280;66942;52.138;5.216;2023-05-24T04:13:54;102497.0;;;12.71;53.81
64019;BME280;66942;52.138;5.216;2023-05-24T04:15:32;102497.0;;;12.61;54.88
64019;BME280;66942;52.138;5.216;2023-05-24T04:17:08;102500.0;;;12.71;54.16
64019;BME280;66942;52.138;5.216;2023-05-24T04:20:21;102503.0;;;12.83;53.99
64019;BME280;66942;52.138;5.216;2023-05-24T04:21:57;102501.0;;;12.99;53.36
64019;BME280;66942;52.138;5.216;2023-05-24T04:23:34;102506.0;;;12.68;54.8
64019;BME280;66942;52.138;5.216;2023-05-24T04:26:46;102507.0;;;12.64;55.07
64019;BME280;66942;52.138;5.216;2023-05-24T04:28:22;102508.99999999999;;;13.01;53.72
64019;BME280;66942;52.138;5.216;2023-05-24T04:29:58;102508.99999999999;;;12.89;54.11
64019;BME280;66942;52.138;5.216;2023-05-24T04:33:10;102506.0;;;13.06;53.73
64019;BME280;66942;52.138;5.216;2023-05-24T04:34:47;102504.0;;;13.07;53.72
64019;BME280;66942;52.138;5.216;2023-05-24T04:36:23;102507.0;;;13.33;53.2
64019;BME280;66942;52.138;5.216;2023-05-24T04:37:59;102505.0;;;13.38;53.19
64019;BME280;66942;52.138;5.216;2023-05-24T04:41:11;102507.0;;;13.58;52.79
64019;BME280;66942;52.138;5.216;2023-05-24T04:42:47;102507.0;;;13.35;53.58
64019;BME280;66942;52.138;5.216;2023-05-24T04:44:24;102508.0;;;13.48;53.32
64019;BME280;66942;52.138;5.216;2023-05-24T04:47:39;102502.0;;;13.63;53.09
64019;BME280;66942;52.138;5.216;2023-05-24T04:49:16;102504.0;;;13.66;52.94
64019;BME280;66942;52.138;5.216;2023-05-24T04:50:53;102508.0;;;13.71;53.15
64019;BME280;66942;52.138;5.216;2023-05-24T04:54:06;102507.0;;;13.64;53.88
64019;BME280;66942;52.138;5.216;2023-05-24T04:55:43;102508.0;;;13.71;53.7
64019;BME280;66942;52.138;5.216;2023-05-24T04:57:19;102506.0;;;13.68;54.26
64019;BME280;66942;52.138;5.216;2023-05-24T04:58:55;102508.0;;;13.81;53.82
64019;BME280;66942;52.138;5.216;2023-05-24T05:02:07;102513.00000000001;;;13.87;54.39
64019;BME280;66942;52.138;5.216;2023-05-24T05:03:43;102506.0;;;13.94;54.26
64019;BME280;66942;52.138;5.216;2023-05-24T05:05:19;102508.99999999999;;;14.05;54.19
64019;BME280;66942;52.138;5.216;2023-05-24T05:08:32;102511.99999999999;;;14.26;54.26
64019;BME280;66942;52.138;5.216;2023-05-24T05:10:08;102514.00000000001;;;14.59;53.54
64019;BME280;66942;52.138;5.216;2023-05-24T05:11:45;102511.99999999999;;;14.52;55.32
64019;BME280;66942;52.138;5.216;2023-05-24T05:14:57;102516.00000000001;;;14.93;54.15
64019;BME280;66942;52.138;5.216;2023-05-24T05:16:33;102517.0;;;15.05;54.13
64019;BME280;66942;52.138;5.216;2023-05-24T05:18:09;102515.00000000001;;;15.38;54.5
64019;BME280;66942;52.138;5.216;2023-05-24T05:19:46;102515.00000000001;;;15.49;54.21
64019;BME280;66942;52.138;5.216;2023-05-24T05:22:58;102517.0;;;15.69;54.01
64019;BME280;66942;52.138;5.216;2023-05-24T05:24:34;102518.0;;;15.88;54.5
64019;BME280;66942;52.138;5.216;2023-05-24T05:26:10;102519.0;;;16.38;52.91
64019;BME280;66942;52.138;5.216;2023-05-24T05:29:22;102517.0;;;16.59;52.58
64019;BME280;66942;52.138;5.216;2023-05-24T05:30:59;102516.00000000001;;;16.79;53.27
64019;BME280;66942;52.138;5.216;2023-05-24T05:32:35;102520.0;;;17.25;51.33
64019;BME280;66942;52.138;5.216;2023-05-24T05:35:47;102522.0;;;17.52;50.95
64019;BME280;66942;52.138;5.216;2023-05-24T05:37:23;102517.0;;;17.55;50.98
64019;BME280;66942;52.138;5.216;2023-05-24T05:38:59;102518.0;;;17.8;49.99
64019;BME280;66942;52.138;5.216;2023-05-24T05:42:12;102523.0;;;17.89;49.79
64019;BME280;66942;52.138;5.216;2023-05-24T05:43:48;102520.0;;;17.97;49.91
64019;BME280;66942;52.138;5.216;2023-05-24T05:45:24;102522.0;;;18.16;49.37
64019;BME280;66942;52.138;5.216;2023-05-24T05:47:00;102527.0;;;18.18;49.76
64019;BME280;66942;52.138;5.216;2023-05-24T05:50:12;102525.0;;;18.55;48.49
64019;BME280;66942;52.138;5.216;2023-05-24T05:51:48;102527.0;;;18.63;47.95
64019;BME280;66942;52.138;5.216;2023-05-24T05:53:25;102524.0;;;18.79;47.77
64019;BME280;66942;52.138;5.216;2023-05-24T05:56:37;102527.0;;;18.73;47.27
64019;BME280;66942;52.138;5.216;2023-05-24T05:58:13;102531.0;;;18.91;47.43
64019;BME280;66942;52.138;5.216;2023-05-24T05:59:49;102525.0;;;19.0;47.02
64019;BME280;66942;52.138;5.216;2023-05-24T06:03:02;102524.0;;;19.11;46.24
64019;BME280;66942;52.138;5.216;2023-05-24T06:04:38;102527.0;;;19.02;46.3
64019;BME280;66942;52.138;5.216;2023-05-24T06:06:14;102524.0;;;19.16;46.64
64019;BME280;66942;52.138;5.216;2023-05-24T06:09:26;102519.0;;;19.32;45.72
64019;BME280;66942;52.138;5.216;2023-05-24T06:11:02;102528.0;;;19.28;46.0
64019;BME280;66942;52.138;5.216;2023-05-24T06:12:38;102524.0;;;19.3;45.63
64019;BME280;66942;52.138;5.216;2023-05-24T06:14:15;102532.0;;;19.61;44.87
64019;BME280;66942;52.138;5.216;2023-05-24T06:17:27;102526.0;;;19.61;44.91
64019;BME280;66942;52.138;5.216;2023-05-24T06:19:03;102526.0;;;19.59;44.34
64019;BME280;66942;52.138;5.216;2023-05-24T06:20:39;102531.0;;;19.62;45.01
64019;BME280;66942;52.138;5.216;2023-05-24T06:23:51;102524.0;;;19.3;44.35
64019;BME280;66942;52.138;5.216;2023-05-24T06:25:28;102521.0;;;19.37;44.63
64019;BME280;66942;52.138;5.216;2023-05-24T06:27:04;102524.0;;;19.7;43.69
64019;BME280;66942;52.138;5.216;2023-05-24T06:30:16;102523.0;;;19.86;43.93
64019;BME280;66942;52.138;5.216;2023-05-24T06:31:52;102523.0;;;19.68;43.18
64019;BME280;66942;52.138;5.216;2023-05-24T06:33:29;102530.0;;;19.7;43.47
64019;BME280;66942;52.138;5.216;2023-05-24T06:35:07;102534.99999999999;;;19.52;43.18
64019;BME280;66942;52.138;5.216;2023-05-24T06:38:20;102534.99999999999;;;19.56;43.62
64019;BME280;66942;52.138;5.216;2023-05-24T06:39:56;102533.99999999999;;;19.34;43.43
64019;BME280;66942;52.138;5.216;2023-05-24T06:41:32;102540.00000000001;;;19.77;43.56
64019;BME280;66942;52.138;5.216;2023-05-24T06:44:44;102540.00000000001;;;19.86;43.6
64019;BME280;66942;52.138;5.216;2023-05-24T06:46:21;102533.99999999999;;;19.95;43.77
64019;BME280;66942;52.138;5.216;2023-05-24T06:47:57;102536.99999999999;;;20.06;42.59
64019;BME280;66942;52.138;5.216;2023-05-24T06:51:09;102529.0;;;19.72;42.8
64019;BME280;66942;52.138;5.216;2023-05-24T06:52:45;102533.0;;;19.53;43.18
64019;BME280;66942;52.138;5.216;2023-05-24T06:54:21;102524.0;;;19.93;41.85
64019;BME280;66942;52.138;5.216;2023-05-24T06:57:34;102532.0;;;19.91;41.55
64019;BME280;66942;52.138;5.216;2023-05-24T06:59:09;102534.99999999999;;;19.52;41.16
64019;BME280;66942;52.138;5.216;2023-05-24T07:00:46;102530.0;;;19.75;41.16
64019;BME280;66942;52.138;5.216;2023-05-24T07:02:22;102528.0;;;19.68;41.38
64019;BME280;66942;52.138;5.216;2023-05-24T07:05:34;102530.0;;;20.0;40.85
64019;BME280;66942;52.138;5.216;2023-05-24T07:07:11;102532.0;;;20.32;40.17
64019;BME280;66942;52.138;5.216;2023-05-24T07:08:47;102536.99999999999;;;20.25;40.94
64019;BME280;66942;52.138;5.216;2023-05-24T07:11:59;102539.00000000001;;;20.53;39.57
64019;BME280;66942;52.138;5.216;2023-05-24T07:13:35;102536.99999999999;;;20.66;40.31
64019;BME280;66942;52.138;5.216;2023-05-24T07:15:12;102545.0;;;20.79;40.1
64019;BME280;66942;52.138;5.216;2023-05-24T07:18:24;102542.0;;;20.81;39.56
64019;BME280;66942;52.138;5.216;2023-05-24T07:20:00;102538.00000000001;;;21.08;38.92
64019;BME280;66942;52.138;5.216;2023-05-24T07:21:36;102539.00000000001;;;21.19;39.43
64019;BME280;66942;52.138;5.216;2023-05-24T07:23:13;102536.99999999999;;;21.06;39.08
64019;BME280;66942;52.138;5.216;2023-05-24T07:26:25;102536.99999999999;;;21.33;38.81
64019;BME280;66942;52.138;5.216;2023-05-24T07:28:01;102532.0;;;21.34;37.76
64019;BME280;66942;52.138;5.216;2023-05-24T07:29:37;102528.0;;;21.62;37.54
64019;BME280;66942;52.138;5.216;2023-05-24T07:32:49;102529.0;;;21.75;37.31
64019;BME280;66942;52.138;5.216;2023-05-24T07:34:26;102536.99999999999;;;21.83;37.57
64019;BME280;66942;52.138;5.216;2023-05-24T07:36:02;102533.0;;;21.6;36.56
64019;BME280;66942;52.138;5.216;2023-05-24T07:39:14;102531.0;;;21.76;36.4
64019;BME280;66942;52.138;5.216;2023-05-24T07:40:51;102534.99999999999;;;21.47;37.15
64019;BME280;66942;52.138;5.216;2023-05-24T07:42:27;102539.00000000001;;;21.57;37.87
64019;BME280;66942;52.138;5.216;2023-05-24T07:45:39;102538.00000000001;;;21.79;36.21
64019;BME280;66942;52.138;5.216;2023-05-24T07:47:16;102529.0;;;21.88;36.5
64019;BME280;66942;52.138;5.216;2023-05-24T07:48:52;102533.99999999999;;;21.79;36.89
64019;BME280;66942;52.138;5.216;2023-05-24T07:50:28;102530.0;;;21.76;36.85
64019;BME280;66942;52.138;5.216;2023-05-24T07:53:40;102524.0;;;22.33;36.35
64019;BME280;66942;52.138;5.216;2023-05-24T07:55:16;102526.0;;;22.5;36.29
64019;BME280;66942;52.138;5.216;2023-05-24T07:56:52;102522.0;;;23.13;35.0
64019;BME280;66942;52.138;5.216;2023-05-24T08:00:06;102527.0;;;23.18;35.04
64019;BME280;66942;52.138;5.216;2023-05-24T08:01:43;102523.0;;;23.23;34.9
64019;BME280;66942;52.138;5.216;2023-05-24T08:03:19;102527.0;;;23.09;34.14
64019;BME280;66942;52.138;5.216;2023-05-24T08:06:31;102528.0;;;23.77;36.1
64019;BME280;66942;52.138;5.216;2023-05-24T08:08:07;102529.0;;;23.86;34.62
64019;BME280;66942;52.138;5.216;2023-05-24T08:09:44;102529.0;;;23.86;33.01
64019;BME280;66942;52.138;5.216;2023-05-24T08:11:20;102524.0;;;24.17;34.74
64019;BME280;66942;52.138;5.216;2023-05-24T08:14:32;102525.0;;;23.98;32.15
64019;BME280;66942;52.138;5.216;2023-05-24T08:16:08;102523.0;;;24.39;32.17
64019;BME280;66942;52.138;5.216;2023-05-24T08:17:44;102519.0;;;24.3;30.91
64019;BME280;66942;52.138;5.216;2023-05-24T08:20:57;102516.00000000001;;;24.45;31.84
64019;BME280;66942;52.138;5.216;2023-05-24T08:22:33;102516.00000000001;;;24.32;32.61
64019;BME280;66942;52.138;5.216;2023-05-24T08:24:09;102521.0;;;23.99;31.73
64019;BME280;66942;52.138;5.216;2023-05-24T08:27:21;102525.0;;;24.04;31.98
64019;BME280;66942;52.138;5.216;2023-05-24T08:28:57;102523.0;;;24.29;34.42
64019;BME280;66942;52.138;5.216;2023-05-24T08:30:33;102528.0;;;24.47;31.43
64019;BME280;66942;52.138;5.216;2023-05-24T08:33:46;102526.0;;;24.3;31.49
64019;BME280;66942;52.138;5.216;2023-05-24T08:35:22;102525.0;;;24.11;31.41
64019;BME280;66942;52.138;5.216;2023-05-24T08:36:58;102526.0;;;23.85;32.22
64019;BME280;66942;52.138;5.216;2023-05-24T08:38:34;102522.0;;;23.56;31.85
64019;BME280;66942;52.138;5.216;2023-05-24T08:41:47;102522.0;;;23.31;32.97
64019;BME280;66942;52.138;5.216;2023-05-24T08:43:25;102517.0;;;23.38;32.31
64019;BME280;66942;52.138;5.216;2023-05-24T08:45:04;102516.00000000001;;;23.56;33.08
64019;BME280;66942;52.138;5.216;2023-05-24T08:48:20;102517.0;;;23.38;32.49
64019;BME280;66942;52.138;5.216;2023-05-24T08:49:59;102518.0;;;23.45;32.51
64019;BME280;66942;52.138;5.216;2023-05-24T08:51:36;102518.0;;;23.54;33.24
64019;BME280;66942;52.138;5.216;2023-05-24T08:53:14;102521.0;;;23.77;33.08
64019;BME280;66942;52.138;5.216;2023-05-24T08:56:29;102516.00000000001;;;23.41;32.15
64019;BME280;66942;52.138;5.216;2023-05-24T08:58:05;102517.0;;;23.79;32.35
64019;BME280;66942;52.138;5.216;2023-05-24T08:59:43;102521.0;;;23.94;32.78
64019;BME280;66942;52.138;5.216;2023-05-24T09:02:56;102523.0;;;23.99;31.75
64019;BME280;66942;52.138;5.216;2023-05-24T09:04:35;102517.0;;;23.86;32.24
64019;BME280;66942;52.138;5.216;2023-05-24T09:06:15;102508.99999999999;;;23.96;34.31
64019;BME280;66942;52.138;5.216;2023-05-24T09:07:54;102513.00000000001;;;23.84;32.24
64019;BME280;66942;52.138;5.216;2023-05-24T09:11:10;102515.00000000001;;;24.04;31.25
64019;BME280;66942;52.138;5.216;2023-05-24T09:12:50;102511.99999999999;;;23.86;32.3
64019;BME280;66942;52.138;5.216;2023-05-24T09:14:30;102517.0;;;23.9;32.75
64019;BME280;66942;52.138;5.216;2023-05-24T09:17:44;102511.99999999999;;;24.18;31.67
64019;BME280;66942;52.138;5.216;2023-05-24T09:19:21;102521.0;;;24.22;31.31
64019;BME280;66942;52.138;5.216;2023-05-24T09:20:57;102517.0;;;24.21;31.33
64019;BME280;66942;52.138;5.216;2023-05-24T09:22:34;102513.00000000001;;;24.88;29.85
64019;BME280;66942;52.138;5.216;2023-05-24T09:25:47;102521.0;;;24.1;30.51
64019;BME280;66942;52.138;5.216;2023-05-24T09:27:23;102519.0;;;24.88;31.44
64019;BME280;66942;52.138;5.216;2023-05-24T09:28:59;102521.0;;;24.76;31.06
64019;BME280;66942;52.138;5.216;2023-05-24T09:32:11;102526.0;;;24.61;31.08
64019;BME280;66942;52.138;5.216;2023-05-24T09:33:47;102518.0;;;24.44;30.67
64019;BME280;66942;52.138;5.216;2023-05-24T09:35:24;102519.0;;;24.25;30.33
64019;BME280;66942;52.138;5.216;2023-05-24T09:38:37;102521.0;;;24.14;30.83
64019;BME280;66942;52.138;5.216;2023-05-24T09:40:17;102525.0;;;23.86;31.53
64019;BME280;66942;52.138;5.216;2023-05-24T09:41:53;102517.0;;;23.44;32.28
64019;BME280;66942;52.138;5.216;2023-05-24T09:43:30;102516.00000000001;;;23.78;32.31
64019;BME280;66942;52.138;5.216;2023-05-24T09:46:44;102508.99999999999;;;23.66;31.51
64019;BME280;66942;52.138;5.216;2023-05-24T09:48:20;102506.0;;;23.7;32.1
64019;BME280;66942;52.138;5.216;2023-05-24T09:49:56;102519.0;;;23.57;32.82
64019;BME280;66942;52.138;5.216;2023-05-24T09:53:15;102515.00000000001;;;23.19;31.55
64019;BME280;66942;52.138;5.216;2023-05-24T09:54:53;102506.0;;;23.57;31.03
64019;BME280;66942;52.138;5.216;2023-05-24T09:56:29;102503.0;;;23.6;32.86
64019;BME280;66942;52.138;5.216;2023-05-24T09:58:08;102518.0;;;23.64;32.32
64019;BME280;66942;52.138;5.216;2023-05-24T10:01:22;102511.99999999999;;;23.51;30.73
64019;BME280;66942;52.138;5.216;2023-05-24T10:03:00;102509.99999999999;;;23.54;33.07
64019;BME280;66942;52.138;5.216;2023-05-24T10:04:37;102521.0;;;23.57;31.13
64019;BME280;66942;52.138;5.216;2023-05-24T10:07:49;102518.0;;;23.48;32.31
64019;BME280;66942;52.138;5.216;2023-05-24T10:09:28;102521.0;;;23.72;31.21
64019;BME280;66942;52.138;5.216;2023-05-24T10:11:04;102521.0;;;23.88;30.98
64019;BME280;66942;52.138;5.216;2023-05-24T10:12:41;102511.99999999999;;;24.19;32.28
64019;BME280;66942;52.138;5.216;2023-05-24T10:15:54;102513.00000000001;;;24.39;29.76
64019;BME280;66942;52.138;5.216;2023-05-24T10:17:30;102519.0;;;24.05;31.33
64019;BME280;66942;52.138;5.216;2023-05-24T10:19:06;102516.00000000001;;;23.64;30.77
64019;BME280;66942;52.138;5.216;2023-05-24T10:22:20;102515.00000000001;;;23.61;31.49
64019;BME280;66942;52.138;5.216;2023-05-24T10:23:58;102521.0;;;23.6;31.54
64019;BME280;66942;52.138;5.216;2023-05-24T10:25:41;102514.00000000001;;;23.39;30.55
64019;BME280;66942;52.138;5.216;2023-05-24T10:27:21;102507.0;;;23.1;31.41
64019;BME280;66942;52.138;5.216;2023-05-24T10:30:47;102514.00000000001;;;23.36;31.77
64019;BME280;66942;52.138;5.216;2023-05-24T10:32:30;102508.0;;;23.18;31.56
64019;BME280;66942;52.138;5.216;2023-05-24T10:34:09;102511.99999999999;;;23.01;31.36
64019;BME280;66942;52.138;5.216;2023-05-24T10:35:46;102502.0;;;22.67;31.78
64019;BME280;66942;52.138;5.216;2023-05-24T10:38:59;102508.99999999999;;;23.21;32.81
64019;BME280;66942;52.138;5.216;2023-05-24T10:40:40;102505.0;;;23.04;31.88
64019;BME280;66942;52.138;5.216;2023-05-24T10:42:17;102505.0;;;23.25;31.76